createdAt,value
2023-02-16T00:00:52.195Z,88.51
2023-02-16T00:03:21.530Z,89.47
2023-02-16T00:05:48.672Z,89.23
2023-02-16T00:08:15.187Z,88.85
2023-02-16T00:10:42.163Z,88.46
2023-02-16T00:13:47.349Z,87.93
2023-02-16T00:16:18.557Z,87.59
2023-02-16T00:18:45.692Z,87.02
2023-02-16T00:21:12.185Z,87.41
2023-02-16T00:23:38.667Z,86.96
2023-02-16T00:26:05.914Z,87.06
2023-02-16T00:28:32.675Z,86.71
2023-02-16T00:30:59.175Z,86.67
2023-02-16T00:33:25.688Z,86.46
2023-02-16T00:35:52.149Z,86.87
2023-02-16T00:38:18.572Z,85.98
2023-02-16T00:40:45.015Z,85.45
2023-02-16T00:43:25.113Z,84.55
2023-02-16T00:45:51.872Z,84.67
2023-02-16T00:48:18.332Z,84.98
2023-02-16T00:50:44.988Z,85.21
2023-02-16T00:53:11.687Z,85.29
2023-02-16T00:55:39.629Z,85.90
2023-02-16T00:58:25.589Z,86.54
2023-02-16T01:00:55.193Z,86.21
2023-02-16T01:03:27.523Z,86.65
2023-02-16T01:06:14.488Z,86.37
2023-02-16T01:09:00.198Z,87.26
2023-02-16T01:11:27.093Z,87.76
2023-02-16T01:13:56.120Z,87.79
2023-02-16T01:16:26.918Z,88.22
2023-02-16T01:18:53.873Z,87.94
2023-02-16T01:21:23.636Z,87.76
2023-02-16T01:23:50.078Z,87.31
2023-02-16T01:26:19.700Z,86.55
2023-02-16T01:28:47.517Z,86.62
2023-02-16T01:31:16.438Z,86.08
2023-02-16T01:33:43.432Z,86.17
2023-02-16T01:36:33.116Z,86.57
2023-02-16T01:39:00.380Z,86.54
2023-02-16T01:41:54.967Z,86.41
2023-02-16T01:44:25.631Z,86.64
2023-02-16T01:47:05.108Z,86.79
2023-02-16T01:49:31.603Z,86.79
2023-02-16T01:52:06.710Z,87.46
2023-02-16T01:55:03.199Z,86.98
2023-02-16T01:57:41.302Z,86.73
2023-02-16T02:00:14.688Z,87.12
2023-02-16T02:02:45.224Z,87.12
2023-02-16T02:05:37.173Z,86.76
2023-02-16T02:08:39.731Z,86.84
2023-02-16T02:11:17.284Z,87.04
2023-02-16T02:14:00.532Z,87.01
2023-02-16T02:16:28.179Z,87.21
2023-02-16T02:18:55.033Z,87.00
2023-02-16T02:22:03.221Z,87.12
2023-02-16T02:24:57.500Z,86.36
2023-02-16T02:27:27.013Z,86.17
2023-02-16T02:30:13.131Z,86.00
2023-02-16T02:33:17.733Z,86.38
2023-02-16T02:35:56.382Z,85.50
2023-02-16T02:38:53.337Z,85.41
2023-02-16T02:42:01.903Z,85.77
2023-02-16T02:44:30.096Z,85.63
2023-02-16T02:46:56.815Z,85.50
2023-02-16T02:49:23.350Z,86.32
2023-02-16T02:51:51.044Z,86.01
2023-02-16T02:54:50.784Z,86.53
2023-02-16T02:57:42.266Z,86.68
2023-02-16T03:00:33.218Z,87.28
2023-02-16T03:03:06.309Z,87.17
2023-02-16T03:05:34.812Z,87.87
2023-02-16T03:08:14.324Z,87.89
2023-02-16T03:11:12.859Z,87.31
2023-02-16T03:13:43.153Z,87.00
2023-02-16T03:16:27.970Z,87.38
2023-02-16T03:19:15.179Z,87.32
2023-02-16T03:22:00.510Z,86.98
2023-02-16T03:24:48.929Z,86.60
2023-02-16T03:27:38.718Z,86.79
2023-02-16T03:30:06.836Z,87.01
2023-02-16T03:32:34.534Z,87.11
2023-02-16T03:35:01.080Z,87.16
2023-02-16T03:37:27.613Z,86.95
2023-02-16T03:40:12.975Z,86.64
2023-02-16T03:42:39.467Z,87.04
2023-02-16T03:45:06.242Z,87.22
2023-02-16T03:47:32.672Z,86.65
2023-02-16T03:49:59.183Z,87.03
2023-02-16T03:52:25.552Z,86.96
2023-02-16T03:54:51.934Z,86.48
2023-02-16T03:57:18.316Z,86.58
2023-02-16T03:59:44.689Z,87.18
2023-02-16T04:02:11.189Z,86.30
2023-02-16T04:04:37.675Z,85.87
2023-02-16T04:07:04.075Z,86.11
2023-02-16T04:09:30.467Z,86.42
2023-02-16T04:12:15.562Z,86.04
2023-02-16T04:14:43.679Z,86.26
2023-02-16T04:17:10.356Z,85.85
2023-02-16T04:19:36.772Z,86.09
2023-02-16T04:22:03.183Z,85.22
2023-02-16T04:24:29.625Z,84.83
2023-02-16T04:26:56.014Z,85.33
2023-02-16T04:29:22.610Z,84.98
2023-02-16T04:31:49.866Z,85.19
2023-02-16T04:34:16.436Z,84.98
2023-02-16T04:36:42.829Z,85.59
2023-02-16T04:39:09.216Z,85.49
2023-02-16T04:41:35.695Z,85.67
2023-02-16T04:44:02.092Z,85.32
2023-02-16T04:46:28.543Z,85.96
2023-02-16T04:48:55.499Z,85.94
2023-02-16T04:51:21.886Z,85.56
2023-02-16T04:53:48.298Z,85.27
2023-02-16T04:56:15.143Z,85.49
2023-02-16T04:58:41.619Z,85.88
2023-02-16T05:01:08.432Z,85.71
2023-02-16T05:03:34.933Z,85.97
2023-02-16T05:06:01.322Z,85.57
2023-02-16T05:08:27.753Z,85.81
2023-02-16T05:11:12.942Z,86.08
2023-02-16T05:13:57.619Z,85.75
2023-02-16T05:16:24.671Z,84.95
2023-02-16T05:18:51.051Z,84.96
2023-02-16T05:21:32.637Z,84.97
2023-02-16T05:24:04.487Z,84.78
2023-02-16T05:26:32.077Z,85.04
2023-02-16T05:28:58.651Z,85.49
2023-02-16T05:31:26.300Z,84.99
2023-02-16T05:33:53.236Z,85.37
2023-02-16T05:36:20.231Z,86.05
2023-02-16T05:38:46.908Z,86.02
2023-02-16T05:41:23.293Z,85.12
2023-02-16T05:43:52.236Z,85.75
2023-02-16T05:46:19.589Z,85.29
2023-02-16T05:48:46.080Z,85.53
2023-02-16T05:51:13.020Z,85.01
2023-02-16T05:53:39.467Z,85.60
2023-02-16T05:56:07.437Z,85.34
2023-02-16T05:58:33.982Z,84.76
2023-02-16T06:01:00.919Z,84.35
2023-02-16T06:03:27.758Z,84.82
2023-02-16T06:05:56.005Z,84.40
2023-02-16T06:08:22.848Z,84.45
2023-02-16T06:10:50.226Z,84.08
2023-02-16T06:13:17.472Z,84.46
2023-02-16T06:15:44.206Z,85.17
2023-02-16T06:18:11.385Z,84.54
2023-02-16T06:20:39.019Z,84.90
2023-02-16T06:23:06.858Z,85.28
2023-02-16T06:25:33.887Z,85.25
2023-02-16T06:28:00.397Z,85.24
2023-02-16T06:30:27.183Z,85.75
2023-02-16T06:32:53.655Z,85.07
2023-02-16T06:35:20.472Z,84.90
2023-02-16T06:37:46.942Z,85.41
2023-02-16T06:40:14.300Z,84.99
2023-02-16T06:42:42.170Z,85.12
2023-02-16T06:45:09.903Z,84.96
2023-02-16T06:47:37.211Z,85.55
2023-02-16T06:50:06.627Z,84.61
2023-02-16T06:52:33.108Z,84.78
2023-02-16T06:54:59.534Z,85.53
2023-02-16T06:57:25.909Z,84.78
2023-02-16T06:59:52.295Z,84.36
2023-02-16T07:02:18.741Z,84.24
2023-02-16T07:04:45.545Z,84.59
2023-02-16T07:07:11.938Z,84.52
2023-02-16T07:09:38.888Z,85.33
2023-02-16T07:12:05.755Z,85.28
2023-02-16T07:14:32.339Z,85.21
2023-02-16T07:17:03.052Z,85.68
2023-02-16T07:19:32.696Z,85.12
2023-02-16T07:22:02.667Z,85.62
2023-02-16T07:24:29.077Z,85.00
2023-02-16T07:26:55.938Z,85.07
2023-02-16T07:29:22.465Z,85.03
2023-02-16T07:31:49.064Z,85.25
2023-02-16T07:34:15.549Z,85.08
2023-02-16T07:36:42.282Z,85.55
2023-02-16T07:39:08.695Z,85.25
2023-02-16T07:41:35.083Z,85.42
2023-02-16T07:44:07.516Z,85.37
2023-02-16T07:46:33.918Z,84.88
2023-02-16T07:49:00.378Z,84.81
2023-02-16T07:51:30.590Z,84.71
2023-02-16T07:53:58.149Z,84.56
2023-02-16T07:56:28.254Z,84.80
2023-02-16T07:58:59.325Z,84.72
2023-02-16T08:01:26.296Z,84.64
2023-02-16T08:03:53.512Z,85.03
2023-02-16T08:06:20.254Z,84.55
2023-02-16T08:08:47.077Z,85.39
2023-02-16T08:11:17.822Z,85.22
2023-02-16T08:13:45.309Z,85.42
2023-02-16T08:16:14.750Z,85.34
2023-02-16T08:18:45.127Z,85.53
2023-02-16T08:21:17.316Z,85.59
2023-02-16T08:23:47.572Z,85.96
2023-02-16T08:26:17.156Z,86.02
2023-02-16T08:28:47.487Z,85.59
2023-02-16T08:31:18.940Z,85.14
2023-02-16T08:33:46.810Z,84.68
2023-02-16T08:36:21.656Z,84.43
2023-02-16T08:38:50.858Z,83.90
2023-02-16T08:41:21.389Z,82.92
2023-02-16T08:43:48.449Z,82.11
2023-02-16T08:46:15.950Z,82.31
2023-02-16T08:48:45.146Z,81.43
2023-02-16T08:51:17.562Z,80.93
2023-02-16T08:53:47.854Z,80.72
2023-02-16T08:56:16.709Z,79.81
2023-02-16T08:58:45.840Z,79.05
2023-02-16T09:01:15.122Z,76.96
2023-02-16T09:03:44.840Z,76.63
2023-02-16T09:06:13.388Z,74.36
2023-02-16T09:08:40.687Z,73.48
2023-02-16T09:11:11.985Z,74.06
2023-02-16T09:13:39.658Z,73.68
2023-02-16T09:16:11.479Z,73.77
2023-02-16T09:18:39.038Z,72.70
2023-02-16T09:21:11.399Z,71.92
2023-02-16T09:23:40.158Z,72.29
2023-02-16T09:26:09.588Z,70.93
2023-02-16T09:28:40.230Z,70.88
2023-02-16T09:31:11.894Z,70.89
2023-02-16T09:33:39.971Z,70.33
2023-02-16T09:36:08.791Z,69.65
2023-02-16T09:38:36.569Z,69.43
2023-02-16T09:41:41.312Z,68.38
2023-02-16T09:44:17.756Z,68.40
2023-02-16T09:46:44.744Z,67.75
2023-02-16T09:49:24.952Z,67.06
2023-02-16T09:52:33.147Z,66.53
2023-02-16T09:55:01.411Z,66.57
2023-02-16T09:57:55.663Z,65.60
2023-02-16T10:00:44.187Z,64.02
2023-02-16T10:03:18.181Z,63.43
2023-02-16T10:06:05.560Z,62.70
2023-02-16T10:08:39.942Z,60.73
2023-02-16T10:11:41.508Z,60.21
2023-02-16T10:14:30.680Z,59.40
2023-02-16T10:17:09.046Z,58.47
2023-02-16T10:19:48.800Z,56.81
2023-02-16T10:22:28.620Z,56.09
2023-02-16T10:25:20.131Z,55.13
2023-02-16T10:27:50.066Z,55.17
2023-02-16T10:30:22.183Z,54.76
2023-02-16T10:32:56.277Z,53.74
2023-02-16T10:35:47.061Z,53.32
2023-02-16T10:38:43.329Z,52.92
2023-02-16T10:41:32.756Z,52.42
2023-02-16T10:44:30.729Z,52.72
2023-02-16T10:47:01.679Z,52.28
2023-02-16T10:49:30.083Z,51.22
2023-02-16T10:51:57.725Z,49.97
2023-02-16T10:54:32.358Z,49.69
2023-02-16T10:57:01.569Z,48.66
2023-02-16T10:59:39.463Z,48.35
2023-02-16T11:02:20.826Z,47.89
2023-02-16T11:04:48.607Z,47.19
2023-02-16T11:07:33.830Z,45.17
2023-02-16T11:10:19.448Z,44.56
2023-02-16T11:12:46.246Z,44.33
2023-02-16T11:15:19.087Z,43.91
2023-02-16T11:17:52.521Z,44.27
2023-02-16T11:20:47.533Z,45.40
2023-02-16T11:23:31.213Z,46.21
2023-02-16T11:26:06.484Z,46.06
2023-02-16T11:28:38.598Z,43.38
2023-02-16T11:31:17.860Z,42.58
2023-02-16T11:33:59.464Z,42.84
2023-02-16T11:36:42.774Z,45.22
2023-02-16T11:39:15.028Z,47.86
2023-02-16T11:41:51.769Z,48.84
2023-02-16T11:44:27.014Z,47.13
2023-02-16T11:46:56.507Z,44.21
2023-02-16T11:49:29.617Z,41.65
2023-02-16T11:51:56.231Z,39.77
2023-02-16T11:54:22.851Z,39.61
2023-02-16T11:57:10.039Z,38.58
2023-02-16T11:59:39.898Z,38.05
2023-02-16T12:02:12.151Z,37.55
2023-02-16T12:04:54.056Z,37.49
2023-02-16T12:07:50.056Z,37.14
2023-02-16T12:10:21.673Z,36.69
2023-02-16T12:12:55.299Z,35.77
2023-02-16T12:15:42.337Z,35.21
2023-02-16T12:18:26.941Z,34.06
2023-02-16T12:21:17.104Z,34.57
2023-02-16T12:24:02.222Z,33.58
2023-02-16T12:26:51.870Z,33.63
2023-02-16T12:30:09.702Z,33.42
2023-02-16T12:32:45.705Z,33.77
2023-02-16T12:35:12.745Z,33.47
2023-02-16T12:37:46.691Z,32.70
2023-02-16T12:40:51.858Z,32.55
2023-02-16T12:43:31.141Z,31.97
2023-02-16T12:46:04.945Z,31.72
2023-02-16T12:48:45.749Z,31.17
2023-02-16T12:51:18.310Z,30.70
2023-02-16T12:53:57.595Z,31.11
2023-02-16T12:56:32.981Z,31.67
2023-02-16T12:59:17.953Z,30.83
2023-02-16T13:01:47.763Z,31.16
2023-02-16T13:05:03.471Z,30.32
2023-02-16T13:07:38.338Z,30.48
2023-02-16T13:10:36.328Z,31.45
2023-02-16T13:13:08.985Z,31.14
2023-02-16T13:15:43.494Z,33.48
2023-02-16T13:18:21.165Z,35.99
2023-02-16T13:20:55.675Z,37.09
2023-02-16T13:23:39.063Z,37.44
2023-02-16T13:26:35.127Z,36.62
2023-02-16T13:29:28.966Z,35.66
2023-02-16T13:32:20.244Z,36.55
2023-02-16T13:35:02.772Z,37.73
2023-02-16T13:38:08.097Z,36.32
2023-02-16T13:40:40.514Z,34.81
2023-02-16T13:43:18.897Z,35.77
2023-02-16T13:45:47.455Z,34.38
2023-02-16T13:48:31.607Z,34.23
2023-02-16T13:51:02.470Z,35.25
2023-02-16T13:53:52.492Z,36.35
2023-02-16T13:56:37.171Z,37.16
2023-02-16T13:59:18.758Z,38.11
2023-02-16T14:01:46.490Z,39.05
2023-02-16T14:04:32.881Z,39.87
2023-02-16T14:07:07.232Z,40.37
2023-02-16T14:09:46.960Z,40.64
2023-02-16T14:12:16.589Z,40.91
2023-02-16T14:14:46.264Z,41.02
2023-02-16T14:17:18.880Z,41.06
2023-02-16T14:19:55.588Z,41.71
2023-02-16T14:22:29.233Z,42.41
2023-02-16T14:24:58.453Z,42.54
2023-02-16T14:27:47.306Z,43.39
2023-02-16T14:30:35.641Z,43.52
2023-02-16T14:33:16.958Z,44.32
2023-02-16T14:35:58.727Z,44.88
2023-02-16T14:38:40.516Z,45.36
2023-02-16T14:41:23.800Z,45.33
2023-02-16T14:44:02.449Z,44.95
2023-02-16T14:47:00.319Z,44.92
2023-02-16T14:50:05.335Z,45.23
2023-02-16T14:52:53.816Z,46.48
2023-02-16T14:55:55.101Z,47.07
2023-02-16T14:58:29.628Z,47.07
2023-02-16T15:01:11.181Z,47.59
2023-02-16T15:03:45.331Z,47.70
2023-02-16T15:06:19.666Z,48.36
2023-02-16T15:08:56.950Z,48.35
2023-02-16T15:12:01.828Z,48.33
2023-02-16T15:14:29.832Z,48.88
2023-02-16T15:16:57.986Z,49.09
2023-02-16T15:19:29.528Z,49.67
2023-02-16T15:22:28.982Z,49.92
2023-02-16T15:25:07.894Z,50.53
2023-02-16T15:27:34.320Z,50.39
2023-02-16T15:30:22.323Z,51.01
2023-02-16T15:32:56.136Z,51.00
2023-02-16T15:35:27.378Z,51.11
2023-02-16T15:38:05.885Z,50.71
2023-02-16T15:40:35.029Z,51.09
2023-02-16T15:43:18.077Z,51.19
2023-02-16T15:45:49.010Z,51.92
2023-02-16T15:48:24.848Z,51.71
2023-02-16T15:50:57.220Z,52.38
2023-02-16T15:53:34.644Z,52.79
2023-02-16T15:56:04.785Z,53.28
2023-02-16T15:58:32.860Z,53.43
2023-02-16T16:01:00.409Z,53.31
2023-02-16T16:03:26.990Z,53.28
2023-02-16T16:06:06.254Z,53.48
2023-02-16T16:08:33.272Z,53.93
2023-02-16T16:11:00.342Z,53.45
2023-02-16T16:13:29.973Z,53.31
2023-02-16T16:16:01.748Z,53.67
2023-02-16T16:18:50.148Z,53.63
2023-02-16T16:21:24.818Z,53.52
2023-02-16T16:24:05.634Z,53.77
2023-02-16T16:26:52.545Z,54.00
2023-02-16T16:29:29.972Z,54.05
2023-02-16T16:31:56.716Z,53.79
2023-02-16T16:34:35.543Z,54.18
2023-02-16T16:37:03.784Z,54.13
2023-02-16T16:39:33.512Z,54.23
2023-02-16T16:42:00.092Z,54.35
2023-02-16T16:44:34.286Z,54.71
2023-02-16T16:47:29.422Z,54.50
2023-02-16T16:50:09.312Z,54.81
2023-02-16T16:52:42.524Z,54.62
2023-02-16T16:55:34.988Z,54.85
2023-02-16T16:58:08.093Z,54.99
2023-02-16T17:00:38.349Z,54.97
2023-02-16T17:03:07.232Z,55.11
2023-02-16T17:05:35.864Z,55.21
2023-02-16T17:08:02.318Z,55.31
2023-02-16T17:10:29.423Z,55.37
2023-02-16T17:12:58.946Z,55.70
2023-02-16T17:15:28.384Z,55.78
2023-02-16T17:17:55.546Z,56.35
2023-02-16T17:20:21.958Z,56.11
2023-02-16T17:22:48.446Z,56.06
2023-02-16T17:25:15.128Z,56.27
2023-02-16T17:27:41.505Z,56.41
2023-02-16T17:30:08.402Z,56.84
2023-02-16T17:32:34.817Z,57.29
2023-02-16T17:35:01.299Z,57.77
2023-02-16T17:37:27.797Z,58.30
2023-02-16T17:39:54.175Z,58.46
2023-02-16T17:42:20.673Z,58.50
2023-02-16T17:44:47.075Z,58.90
2023-02-16T17:47:15.506Z,58.49
2023-02-16T17:49:41.936Z,59.35
2023-02-16T17:52:12.628Z,58.90
2023-02-16T17:54:39.471Z,58.97
2023-02-16T17:57:05.918Z,59.16
2023-02-16T17:59:34.277Z,58.95
2023-02-16T18:02:00.757Z,59.20
2023-02-16T18:04:27.184Z,58.73
2023-02-16T18:06:53.675Z,59.09
2023-02-16T18:09:24.258Z,58.85
2023-02-16T18:11:51.073Z,59.39
2023-02-16T18:14:17.681Z,59.50
2023-02-16T18:16:44.199Z,59.78
2023-02-16T18:19:14.972Z,59.81
2023-02-16T18:21:41.417Z,60.29
2023-02-16T18:24:07.893Z,60.64
2023-02-16T18:26:34.520Z,60.69
2023-02-16T18:29:00.922Z,60.36
2023-02-16T18:31:27.463Z,60.68
2023-02-16T18:33:54.026Z,60.74
2023-02-16T18:36:20.432Z,60.27
2023-02-16T18:38:46.912Z,60.82
2023-02-16T18:41:13.729Z,60.18
2023-02-16T18:43:40.173Z,60.37
2023-02-16T18:46:08.146Z,60.27
2023-02-16T18:48:34.811Z,60.26
2023-02-16T18:51:09.607Z,59.95
2023-02-16T18:53:38.909Z,59.71
2023-02-16T18:56:07.403Z,59.78
2023-02-16T18:58:35.051Z,59.45
2023-02-16T19:01:01.513Z,59.86
2023-02-16T19:03:30.070Z,60.38
2023-02-16T19:05:56.707Z,60.45
2023-02-16T19:08:23.257Z,60.03
2023-02-16T19:10:49.642Z,60.54
2023-02-16T19:13:16.050Z,60.49
2023-02-16T19:15:42.905Z,60.05
2023-02-16T19:18:09.276Z,60.26
2023-02-16T19:20:36.029Z,60.04
2023-02-16T19:23:02.470Z,59.62
2023-02-16T19:25:29.276Z,59.40
2023-02-16T19:27:55.708Z,59.24
2023-02-16T19:30:24.162Z,59.42
2023-02-16T19:32:50.682Z,59.38
2023-02-16T19:35:18.067Z,59.20
2023-02-16T19:37:44.655Z,59.52
2023-02-16T19:40:11.894Z,60.12
2023-02-16T19:42:39.024Z,59.81
2023-02-16T19:45:06.065Z,60.08
2023-02-16T19:47:32.865Z,59.89
2023-02-16T19:49:59.291Z,59.30
2023-02-16T19:52:25.853Z,59.28
2023-02-16T19:54:52.368Z,59.43
2023-02-16T19:57:18.920Z,58.92
2023-02-16T19:59:45.340Z,58.51
2023-02-16T20:02:12.947Z,58.23
2023-02-16T20:04:39.349Z,58.09
2023-02-16T20:07:05.886Z,58.40
2023-02-16T20:09:32.276Z,57.66
2023-02-16T20:11:58.740Z,57.87
2023-02-16T20:14:25.167Z,58.16
2023-02-16T20:16:51.821Z,57.51
2023-02-16T20:19:18.366Z,57.50
2023-02-16T20:21:46.218Z,57.76
2023-02-16T20:24:13.460Z,57.83
2023-02-16T20:26:43.072Z,57.57
2023-02-16T20:29:12.401Z,58.01
2023-02-16T20:31:47.128Z,57.59
2023-02-16T20:34:13.613Z,57.73
2023-02-16T20:36:40.016Z,57.92
2023-02-16T20:39:07.789Z,58.04
2023-02-16T20:41:34.368Z,58.72
2023-02-16T20:44:01.126Z,58.77
2023-02-16T20:46:27.665Z,58.97
2023-02-16T20:48:54.265Z,58.30
2023-02-16T20:51:20.888Z,58.54
2023-02-16T20:53:47.588Z,58.74
2023-02-16T20:56:16.939Z,58.63
2023-02-16T20:58:45.101Z,58.86
2023-02-16T21:01:21.990Z,58.99
2023-02-16T21:03:50.301Z,59.59
2023-02-16T21:06:17.352Z,59.38
2023-02-16T21:08:44.115Z,60.00
2023-02-16T21:11:10.842Z,59.67
2023-02-16T21:13:38.616Z,59.97
2023-02-16T21:16:07.163Z,60.13
2023-02-16T21:18:34.949Z,60.00
2023-02-16T21:21:02.006Z,60.57
2023-02-16T21:23:28.574Z,60.47
2023-02-16T21:26:03.461Z,60.83
2023-02-16T21:28:30.410Z,60.85
2023-02-16T21:31:02.209Z,61.17
2023-02-16T21:33:28.677Z,61.64
2023-02-16T21:36:02.747Z,61.87
2023-02-16T21:38:29.356Z,61.87
2023-02-16T21:41:21.488Z,61.81
2023-02-16T21:43:47.917Z,62.05
2023-02-16T21:46:14.400Z,62.12
2023-02-16T21:48:47.304Z,61.90
2023-02-16T21:51:28.754Z,62.30
2023-02-16T21:53:55.608Z,62.78
2023-02-16T21:56:30.986Z,62.22
2023-02-16T21:58:57.994Z,62.68
2023-02-16T22:01:28.011Z,63.34
2023-02-16T22:03:59.196Z,63.35
2023-02-16T22:06:26.837Z,63.09
2023-02-16T22:08:53.654Z,63.54
2023-02-16T22:11:20.851Z,63.85
2023-02-16T22:13:47.549Z,64.23
2023-02-16T22:16:17.532Z,64.42
2023-02-16T22:18:44.468Z,64.20
2023-02-16T22:21:11.502Z,64.36
2023-02-16T22:23:39.168Z,64.62
2023-02-16T22:26:07.108Z,64.42
2023-02-16T22:28:35.453Z,64.41
2023-02-16T22:31:09.106Z,63.99
2023-02-16T22:33:35.627Z,64.16
2023-02-16T22:36:13.705Z,64.57
2023-02-16T22:38:44.838Z,63.80
2023-02-16T22:41:11.990Z,63.76
2023-02-16T22:43:40.511Z,63.83
2023-02-16T22:46:09.383Z,64.43
2023-02-16T22:48:36.334Z,64.23
2023-02-16T22:51:04.788Z,64.81
2023-02-16T22:53:31.375Z,65.09
2023-02-16T22:55:57.829Z,65.01
2023-02-16T22:58:24.250Z,65.82
2023-02-16T23:00:51.494Z,65.79
2023-02-16T23:03:18.384Z,65.93
2023-02-16T23:05:44.995Z,65.76
2023-02-16T23:08:11.723Z,65.84
2023-02-16T23:10:39.856Z,66.13
2023-02-16T23:13:08.771Z,65.92
2023-02-16T23:15:36.090Z,65.85
2023-02-16T23:18:02.648Z,65.66
2023-02-16T23:20:29.421Z,66.20
2023-02-16T23:22:55.852Z,66.44
2023-02-16T23:25:34.048Z,65.83
2023-02-16T23:28:03.416Z,66.08
2023-02-16T23:30:30.840Z,65.33
2023-02-16T23:32:57.653Z,65.71
2023-02-16T23:35:24.144Z,64.82
2023-02-16T23:37:50.533Z,65.59
2023-02-16T23:40:17.155Z,65.07
2023-02-16T23:42:43.586Z,64.41
2023-02-16T23:45:10.023Z,64.67
2023-02-16T23:47:36.508Z,64.52
2023-02-16T23:50:02.957Z,64.35
2023-02-16T23:52:29.366Z,64.30
2023-02-16T23:54:55.776Z,64.30
2023-02-16T23:57:22.167Z,64.04
2023-02-16T23:59:48.630Z,64.58
